Data for 08/21/2014

Time Sea-Level Adjusted Pressure Absolute Pressure Temperature Relative Humidity Dew Point Precipitation   
(mb) (inHg) (mb) (inHg) (C) (F) (%) (C) (F) (mm) (in)
00:05 1019 30.09 848 25.04 12.3 54.2 82 9.4 48.9 0 0
00:10 1019 30.09 848 25.04 12.3 54.2 82 9.3 48.7 0 0
00:15 1019 30.09 848 25.04 12.3 54.2 82 9.3 48.7 0 0
00:20 1019 30.09 848 25.04 12.4 54.3 82 9.4 49 0 0
00:25 1019 30.09 848 25.04 12.4 54.2 83 9.6 49.2 0 0
00:30 1019 30.09 848 25.04 12.4 54.3 82 9.5 49 0 0
00:35 1019 30.09 848 25.04 12.4 54.3 83 9.5 49.2 0 0
00:40 1019 30.09 848 25.04 12.4 54.3 82 9.4 49 0 0
00:45 1019 30.09 848 25.04 12.4 54.4 82 9.5 49.1 0 0
00:50 1019 30.09 848 25.04 12.3 54.1 83 9.5 49.1 0 0
00:55 1019 30.09 848 25.04 12.1 53.9 84 9.5 49 0 0
01:00 1019 30.09 848 25.04 12 53.5 85 9.5 49 0 0
01:05 1019 30.09 848 25.04 12 53.6 85 9.5 49.1 0 0
01:10 1019 30.09 848 25.04 11.9 53.4 85 9.6 49.2 0 0
01:15 1019 30.09 848 25.04 11.9 53.4 85 9.4 48.9 0 0
01:20 1019 30.09 848 25.04 12 53.6 84 9.4 49 0 0
01:25 1019 30.09 849 25.07 11.9 53.4 87 9.8 49.6 0 0
01:30 1019 30.09 849 25.07 11.6 52.9 88 9.7 49.5 0 0
01:35 1019 30.09 849 25.07 11.7 53 87 9.6 49.3 0 0
01:40 1019 30.09 849 25.07 11.7 53.1 86 9.4 48.9 0 0
01:45 1019 30.09 849 25.07 11.9 53.5 83 9.2 48.6 0 0
01:50 1019 30.09 849 25.07 12.1 53.7 83 9.2 48.6 0 0
01:55 1020 30.12 849 25.07 12.1 53.8 84 9.4 49 0 0
02:00 1019 30.09 849 25.07 12.1 53.7 81 9 48.2 0 0
02:05 1020 30.12 849 25.07 12.2 53.9 83 9.4 49 0 0
02:10 1020 30.12 849 25.07 11.9 53.5 86 9.7 49.4 0 0
02:15 1020 30.12 849 25.07 11.7 53.1 86 9.5 49.1 0 0
02:20 1020 30.12 849 25.07 11.8 53.2 86 9.5 49.2 0 0
02:25 1020 30.12 849 25.07 11.7 53.1 86 9.5 49 0 0
02:30 1020 30.12 849 25.07 11.7 53.1 88 9.8 49.7 0 0
02:35 1020 30.12 849 25.07 11.6 52.9 88 9.8 49.6 0 0
02:40 1020 30.12 849 25.07 11.5 52.8 89 9.8 49.6 0 0
02:45 1020 30.12 849 25.07 11.6 52.8 88 9.6 49.3 0 0
02:50 1020 30.12 849 25.07 11.8 53.2 87 9.7 49.5 0 0
02:55 1020 30.12 849 25.07 11.6 52.8 89 9.8 49.7 0 0
03:00 1020 30.12 849 25.07 11.4 52.4 90 9.8 49.6 0 0
03:05 1020 30.12 849 25.07 11.5 52.6 88 9.5 49.2 0 0
03:10 1020 30.12 849 25.07 11.7 53 87 9.7 49.4 0 0
03:15 1020 30.12 849 25.07 11.8 53.2 87 9.7 49.4 0 0
03:20 1020 30.12 849 25.07 11.7 53 88 9.8 49.6 0 0
03:25 1020 30.12 849 25.07 11.5 52.8 89 9.9 49.8 0 0
03:30 1020 30.12 849 25.07 11.3 52.4 90 9.8 49.6 0 0
03:35 1020 30.12 849 25.07 11.4 52.5 89 9.7 49.5 0 0
03:40 1020 30.12 849 25.07 11.5 52.7 89 9.8 49.6 0 0
03:45 1020 30.12 849 25.07 11.5 52.7 90 9.9 49.8 0 0
03:50 1020 30.12 849 25.07 11.5 52.6 90 9.9 49.9 0 0
03:55 1020 30.12 849 25.07 11.4 52.6 90 9.8 49.6 0 0
04:00 1020 30.12 850 25.1 11.5 52.6 88 9.6 49.3 0 0
04:05 1020 30.12 850 25.1 11.5 52.7 89 9.7 49.4 0 0
04:10 1020 30.12 850 25.1 11.4 52.4 89 9.6 49.3 0 0
04:15 1021 30.15 850 25.1 11.5 52.6 88 9.5 49.1 0 0
04:20 1021 30.15 850 25.1 11.7 53 87 9.6 49.3 0 0
04:25 1021 30.15 850 25.1 11.7 53.1 87 9.7 49.5 0 0
04:30 1021 30.15 850 25.1 11.8 53.2 86 9.5 49.1 0 0
04:35 1021 30.15 850 25.1 11.9 53.4 85 9.6 49.2 0 0
04:40 1021 30.15 850 25.1 11.9 53.5 86 9.6 49.3 0 0
04:45 1021 30.15 850 25.1 11.9 53.4 86 9.6 49.3 0 0
04:50 1021 30.15 850 25.1 11.8 53.3 87 9.8 49.7 0 0
04:55 1021 30.15 850 25.1 11.7 53.1 89 9.9 49.8 .2 0.008
05:00 1021 30.15 850 25.1 11.6 52.8 90 10 50.1 .2 0.008
05:05 1021 30.15 850 25.1 11.4 52.5 92 10.1 50.2 .2 0.008
05:10 1021 30.15 850 25.1 11.3 52.4 91 10 50 0 0
05:15 1021 30.15 850 25.1 11.3 52.3 92 10 50.1 .4 0.016
05:20 1021 30.15 850 25.1 11.2 52.2 92 10 50 0 0
05:25 1021 30.15 850 25.1 11.1 52 93 10 50 0 0
05:30 1021 30.15 850 25.1 11.1 51.9 93 10 50 0 0
05:35 1021 30.15 850 25.1 11.1 51.9 94 10.1 50.1 0 0
05:40 1021 30.15 850 25.1 11 51.8 94 10.1 50.1 0 0
05:45 1021 30.15 850 25.1 11 51.8 94 10.1 50.1 0 0
05:50 1021 30.15 850 25.1 11 51.8 94 10 50 0 0
05:55 1021 30.15 850 25.1 11.1 51.9 94 10.2 50.3 0 0
06:00 1021 30.15 850 25.1 11.2 52.2 93 10.1 50.2 0 0
06:05 1021 30.15 850 25.1 11.5 52.8 92 10.2 50.4 0 0
06:10 1021 30.15 850 25.1 11.5 52.7 93 10.4 50.7 0 0
06:15 1021 30.15 850 25.1 11.3 52.4 93 10.2 50.4 0 0
06:20 1021 30.15 850 25.1 11.2 52.2 93 10.2 50.4 0 0
06:25 1021 30.15 850 25.1 11.2 52.2 93 10.1 50.2 0 0
06:30 1021 30.15 850 25.1 11.2 52.1 93 10.1 50.2 0 0
06:35 1021 30.15 850 25.1 11.1 51.9 94 10.1 50.1 0 0
06:40 1021 30.15 850 25.1 11.1 51.9 94 10.1 50.2 0 0
06:45 1021 30.15 850 25.1 11.1 52 93 10.1 50.2 0 0
06:50 1021 30.15 850 25.1 11.1 52 94 10.1 50.2 0 0
06:55 1021 30.15 850 25.1 11 51.8 94 10.1 50.2 0 0
07:00 1021 30.15 850 25.1 11 51.8 94 10.2 50.3 0 0
07:05 1021 30.15 850 25.1 11.1 52 94 10.2 50.4 0 0
07:10 1021 30.15 850 25.1 11.1 52 94 10.2 50.4 0 0
07:15 1021 30.15 850 25.1 11.2 52.2 94 10.2 50.4 0 0
07:20 1021 30.15 850 25.1 11.2 52.2 94 10.3 50.5 0 0
07:25 1021 30.15 850 25.1 11.3 52.4 94 10.3 50.6 0 0
07:30 1021 30.15 850 25.1 11.4 52.6 94 10.4 50.8 0 0
07:35 1021 30.15 850 25.1 11.6 52.8 93 10.5 50.8 0 0
07:40 1021 30.15 850 25.1 11.7 53 92 10.5 50.9 0 0
07:45 1021 30.15 850 25.1 11.8 53.2 92 10.6 51.1 0 0
07:50 1021 30.15 850 25.1 11.9 53.4 92 10.6 51.2 0 0
07:55 1021 30.15 850 25.1 12 53.6 93 10.9 51.6 0 0
08:00 1021 30.15 850 25.1 12.1 53.9 93 11.1 52 0 0
08:05 1021 30.15 850 25.1 12.2 54 92 11 51.8 0 0
08:10 1021 30.15 850 25.1 12.3 54.1 93 11.1 52 0 0
08:15 1021 30.15 850 25.1 12.2 54 92 11 51.8 0 0
08:20 1021 30.15 850 25.1 12.2 54 92 11 51.7 0 0
08:25 1021 30.15 850 25.1 12.2 54 91 10.8 51.5 0 0
08:30 1021 30.15 850 25.1 12.3 54.1 91 10.9 51.6 0 0
08:35 1021 30.15 850 25.1 12.3 54.2 92 11 51.8 0 0
08:40 1021 30.15 850 25.1 12.4 54.3 90 10.7 51.3 0 0
08:45 1021 30.15 850 25.1 12.4 54.4 90 10.9 51.6 0 0
08:50 1021 30.15 850 25.1 12.6 54.6 89 10.8 51.4 0 0
08:55 1021 30.15 850 25.1 12.7 54.9 89 11 51.8 0 0
09:00 1021 30.15 850 25.1 12.9 55.1 85 10.5 50.9 0 0
09:05 1021 30.15 850 25.1 12.9 55.3 87 10.8 51.4 0 0
09:10 1021 30.15 851 25.13 13.1 55.7 86 10.8 51.5 0 0
09:15 1021 30.15 851 25.13 13.1 55.6 90 11.5 52.6 0 0
09:20 1021 30.15 851 25.13 13.1 55.6 87 11 51.8 0 0
09:25 1021 30.15 851 25.13 13 55.3 88 11 51.8 0 0
09:30 1021 30.15 851 25.13 13 55.3 88 11 51.8 0 0
09:35 1021 30.15 851 25.13 13.1 55.5 87 11 51.8 0 0
09:40 1021 30.15 851 25.13 13.3 55.9 86 11 51.7 0 0
09:45 1021 30.15 851 25.13 13.3 56 84 10.7 51.2 0 0
09:50 1021 30.15 851 25.13 13.2 55.7 85 10.7 51.2 0 0
09:55 1021 30.15 851 25.13 13.2 55.7 85 10.6 51.1 0 0
10:00 1021 30.15 851 25.13 13.2 55.7 85 10.7 51.2 0 0
10:05 1022 30.18 851 25.13 13.1 55.6 84 10.4 50.8 0 0
10:10 1022 30.18 851 25.13 13.1 55.6 86 10.7 51.3 0 0
10:15 1022 30.18 851 25.13 13.1 55.5 86 10.8 51.4 0 0
10:20 1022 30.18 851 25.13 13.1 55.6 84 10.6 51 0 0
10:25 1022 30.18 851 25.13 13.1 55.6 87 10.9 51.6 0 0
10:30 1022 30.18 851 25.13 13.1 55.6 87 11 51.8 0 0
10:35 1022 30.18 851 25.13 13 55.4 88 11.1 52 0 0
10:40 1022 30.18 851 25.13 13 55.4 88 11 51.8 0 0
10:45 1022 30.18 851 25.13 12.9 55.2 88 10.9 51.6 0 0
10:50 1022 30.18 851 25.13 12.6 54.7 89 10.8 51.5 0 0
10:55 1022 30.18 851 25.13 12.5 54.5 91 11.1 52.1 0 0
11:00 1022 30.18 851 25.13 12.5 54.4 92 11.3 52.3 0 0
11:05 1022 30.18 851 25.13 12.1 53.7 93 10.9 51.7 0 0
11:10 1022 30.18 851 25.13 11.7 53 93 10.7 51.2 .2 0.008
11:15 1022 30.18 851 25.13 11.5 52.7 94 10.6 51.1 0 0
11:20 1022 30.18 851 25.13 11.4 52.6 95 10.6 51.1 .2 0.008
11:25 1022 30.18 851 25.13 11.4 52.5 96 10.7 51.3 .2 0.008
11:30 1022 30.18 851 25.13 11.5 52.7 95 10.8 51.4 .6 0.024
11:35 1022 30.18 852 25.16 11.4 52.5 95 10.6 51.1 .2 0.008
11:40 1022 30.18 852 25.16 11.4 52.5 96 10.7 51.3 .2 0.008
11:45 1022 30.18 852 25.16 11.5 52.6 96 10.8 51.4 .2 0.008
11:50 1022 30.18 852 25.16 11.6 52.9 96 10.9 51.7 .2 0.008
11:55 1022 30.18 852 25.16 11.6 53 96 11 51.7 0 0
12:00 1022 30.18 852 25.16 11.8 53.2 95 10.9 51.7 .2 0.008
12:05 1022 30.18 852 25.16 11.8 53.2 96 11.1 52 .2 0.008
12:10 1022 30.18 852 25.16 11.9 53.4 95 11.2 52.1 0 0
12:15 1022 30.18 852 25.16 12 53.6 95 11.2 52.2 0 0
12:20 1022 30.18 852 25.16 12.2 54 93 11.1 52 0 0
12:25 1022 30.18 852 25.16 12.3 54.2 93 11.2 52.2 0 0
12:30 1022 30.18 852 25.16 12.5 54.4 93 11.3 52.4 0 0
12:35 1022 30.18 852 25.16 12.3 54.1 93 11.2 52.2 0 0
12:40 1022 30.18 852 25.16 12.1 53.8 94 11.1 52 0 0
12:45 1022 30.18 852 25.16 12.1 53.8 92 10.9 51.6 0 0
12:50 1022 30.18 852 25.16 12.1 53.8 94 11.2 52.1 0 0
12:55 1022 30.18 852 25.16 12.2 53.9 93 11.2 52.1 .2 0.008
13:00 1022 30.18 852 25.16 12.3 54.2 94 11.3 52.4 0 0
13:05 1022 30.18 852 25.16 12.3 54.1 92 10.9 51.7 0 0
13:10 1022 30.18 852 25.16 12.2 53.9 92 10.9 51.7 0 0
13:15 1022 30.18 852 25.16 12.3 54.2 92 11.1 52 0 0
13:20 1022 30.18 852 25.16 12.5 54.4 93 11.3 52.4 0 0
13:25 1022 30.18 852 25.16 12.7 54.8 89 11 51.7 0 0
13:30 1022 30.18 852 25.16 12.8 55 90 11.2 52.1 0 0
13:35 1022 30.18 852 25.16 13 55.4 87 11 51.7 0 0
13:40 1022 30.18 852 25.16 13.2 55.8 89 11.5 52.7 0 0
13:45 1022 30.18 852 25.16 13.6 56.6 85 11.2 52.2 0 0
13:50 1022 30.18 852 25.16 13.8 56.8 80 10.4 50.7 0 0
13:55 1022 30.18 852 25.16 13.7 56.6 86 11.4 52.6 0 0
14:00 1022 30.18 852 25.16 14.3 57.7 78 10.5 50.9 0 0
14:05 1022 30.18 852 25.16 14.9 58.9 77 10.9 51.6 0 0
14:10 1022 30.18 852 25.16 15.5 59.8 74 10.9 51.6 0 0
14:15 1022 30.18 852 25.16 14.7 58.4 76 10.5 50.9 0 0
14:20 1023 30.21 852 25.16 14.8 58.6 76 10.7 51.2 0 0
14:25 1023 30.21 852 25.16 14.9 58.7 74 10.4 50.7 0 0
14:30 1023 30.21 852 25.16 14.9 58.8 77 10.9 51.6 0 0
14:35 1023 30.21 852 25.16 14.8 58.7 78 11.1 51.9 0 0
14:40 1022 30.18 852 25.16 15.1 59.2 76 10.9 51.6 0 0
14:45 1022 30.18 852 25.16 15.4 59.6 69 9.8 49.7 0 0
14:50 1022 30.18 852 25.16 15.7 60.3 67 9.8 49.6 0 0
14:55 1022 30.18 852 25.16 16.1 60.9 75 11.7 53 0 0
15:00 1022 30.18 851 25.13 16.1 61 67 10.1 50.2 0 0
15:05 1022 30.18 851 25.13 16.1 61 62 8.8 47.9 0 0
15:10 1022 30.18 851 25.13 16.2 61.1 64 9.3 48.8 0 0
15:15 1022 30.18 851 25.13 16.5 61.7 69 11 51.8 0 0
15:20 1022 30.18 851 25.13 17 62.6 63 10.1 50.1 0 0
15:25 1022 30.18 851 25.13 17 62.6 63 10 50 0 0
15:30 1022 30.18 851 25.13 17 62.6 68 11.1 52.1 0 0
15:35 1022 30.18 851 25.13 17 62.6 66 10.7 51.3 0 0
15:40 1022 30.18 851 25.13 17.5 63.5 60 9.8 49.6 0 0
15:45 1022 30.18 851 25.13 17.5 63.6 59 9.5 49.1 0 0
15:50 1022 30.18 851 25.13 17.6 63.6 60 9.8 49.6 0 0
15:55 1022 30.18 851 25.13 17.6 63.6 58 9.2 48.6 0 0
16:00 1022 30.18 851 25.13 17.4 63.3 60 9.5 49.2 0 0
16:05 1022 30.18 851 25.13 17.5 63.4 55 8.5 47.4 0 0
16:10 1022 30.18 851 25.13 17.7 63.9 55 8.6 47.5 0 0
16:15 1022 30.18 851 25.13 17.7 63.8 58 9.4 48.9 0 0
16:20 1022 30.18 851 25.13 18.1 64.5 56 9.2 48.5 0 0
16:25 1021 30.15 851 25.13 18.1 64.7 56 9.3 48.8 0 0
16:30 1021 30.15 851 25.13 17.9 64.2 56 9 48.2 0 0
16:35 1021 30.15 851 25.13 18 64.4 57 9.6 49.2 0 0
16:40 1021 30.15 851 25.13 18.2 64.8 53 8.5 47.3 0 0
16:45 1021 30.15 851 25.13 18.2 64.8 51 8.1 46.6 0 0
16:50 1021 30.15 851 25.13 18.5 65.2 51 8.3 46.9 0 0
16:55 1021 30.15 851 25.13 18.6 65.4 48 7.6 45.7 0 0
17:00 1021 30.15 851 25.13 18.3 65 49 7.6 45.7 0 0
17:05 1021 30.15 851 25.13 18.5 65.4 49 7.8 46.1 .2 0.008
17:10 1021 30.15 851 25.13 18.9 65.9 54 9.4 48.9 0 0
17:15 1021 30.15 850 25.1 18.8 65.8 50 8.1 46.6 0 0
17:20 1021 30.15 850 25.1 18.6 65.4 49 7.7 45.9 0 0
17:25 1021 30.15 850 25.1 18.3 65 48 7.3 45.1 0 0
17:30 1021 30.15 850 25.1 18.3 64.9 53 8.7 47.7 0 0
17:35 1021 30.15 850 25.1 18.5 65.3 44 6.1 43.1 0 0
17:40 1021 30.15 850 25.1 18.5 65.3 51 8.3 47 0 0
17:45 1021 30.15 850 25.1 18.5 65.3 49 7.8 46.1 0 0
17:50 1021 30.15 850 25.1 18.7 65.6 50 8.2 46.7 0 0
17:55 1021 30.15 850 25.1 18.9 66 43 6 42.9 0 0
18:00 1021 30.15 850 25.1 18.3 65 49 7.6 45.7 0 0
18:05 1021 30.15 850 25.1 17.7 63.8 54 8.4 47.1 0 0
18:10 1021 30.15 850 25.1 17.2 63 48 6.3 43.3 0 0
18:15 1021 30.15 850 25.1 17.3 63.2 54 8.1 46.5 0 0
18:20 1021 30.15 850 25.1 17.1 62.8 57 8.6 47.5 0 0
18:25 1021 30.15 850 25.1 16.9 62.4 59 9 48.1 0 0
18:30 1021 30.15 850 25.1 16.8 62.2 61 9.3 48.7 0 0
18:35 1021 30.15 850 25.1 16.7 62.1 59 8.7 47.7 0 0
18:40 1021 30.15 850 25.1 16.6 62 61 9.1 48.4 0 0
18:45 1021 30.15 850 25.1 16.5 61.7 62 9.3 48.8 0 0
18:50 1021 30.15 850 25.1 16.4 61.5 63 9.4 48.9 0 0
18:55 1021 30.15 850 25.1 16.3 61.4 63 9.2 48.6 0 0
19:00 1021 30.15 850 25.1 16.2 61.1 62 9 48.3 0 0
19:05 1021 30.15 850 25.1 16.1 61 65 9.5 49.2 0 0
19:10 1021 30.15 850 25.1 16 60.7 65 9.5 49 0 0
19:15 1021 30.15 850 25.1 15.9 60.6 64 9.2 48.6 0 0
19:20 1021 30.15 850 25.1 15.8 60.5 64 9.2 48.5 0 0
19:25 1021 30.15 850 25.1 15.8 60.4 65 9.2 48.6 0 0
19:30 1021 30.15 850 25.1 15.7 60.2 66 9.3 48.7 0 0
19:35 1021 30.15 850 25.1 15.6 60 67 9.6 49.3 0 0
19:40 1021 30.15 850 25.1 15.5 59.8 67 9.5 49.1 0 0
19:45 1021 30.15 850 25.1 15.4 59.7 69 9.8 49.6 0 0
19:50 1021 30.15 851 25.13 15.2 59.4 70 9.9 49.9 0 0
19:55 1021 30.15 851 25.13 15 59 71 9.9 49.8 0 0
20:00 1022 30.18 851 25.13 14.9 58.7 72 9.9 49.8 0 0
20:05 1022 30.18 851 25.13 14.6 58.3 72 9.6 49.2 0 0
20:10 1022 30.18 851 25.13 14.5 58.1 70 9.2 48.5 0 0
20:15 1022 30.18 851 25.13 14.4 58 68 8.7 47.6 0 0
20:20 1022 30.18 851 25.13 14.3 57.8 69 8.8 47.8 0 0
20:25 1022 30.18 851 25.13 14.2 57.5 70 8.7 47.7 0 0
20:30 1022 30.18 851 25.13 13.9 57.1 73 9.2 48.5 0 0
20:35 1022 30.18 851 25.13 13.5 56.4 75 9.3 48.8 0 0
20:40 1022 30.18 851 25.13 13.3 56 78 9.6 49.3 0 0
20:45 1022 30.18 852 25.16 13 55.5 81 9.9 49.8 0 0
20:50 1022 30.18 852 25.16 12.8 55 82 9.8 49.7 0 0
20:55 1022 30.18 852 25.16 12.9 55.1 81 9.7 49.4 0 0
21:00 1023 30.21 852 25.16 12.9 55.2 82 10 49.9 .2 0.008
21:05 1023 30.21 852 25.16 12.9 55.1 82 9.9 49.9 0 0
21:10 1023 30.21 852 25.16 12.8 55 85 10.3 50.5 .2 0.008
21:15 1023 30.21 852 25.16 12.7 54.9 84 10.1 50.1 0 0
21:20 1023 30.21 852 25.16 12.8 55.1 83 10.1 50.1 .2 0.008
21:25 1023 30.21 853 25.19 12.8 55 84 10.3 50.5 .2 0.008
21:30 1023 30.21 853 25.19 12.3 54.1 89 10.6 51.1 .8 0.031
21:35 1023 30.21 853 25.19 11.7 53.1 92 10.4 50.8 1 0.039
21:40 1023 30.21 853 25.19 11.5 52.6 91 10.1 50.1 .8 0.031
21:45 1024 30.24 853 25.19 11.4 52.5 93 10.3 50.5 .4 0.016
21:50 1024 30.24 853 25.19 11.3 52.3 90 9.8 49.6 .2 0.008
21:55 1024 30.24 853 25.19 11.6 52.8 88 9.7 49.5 .4 0.016
22:00 1023 30.21 853 25.19 11.8 53.2 90 10.2 50.4 .2 0.008
22:05 1023 30.21 853 25.19 11.5 52.6 91 10 50 .2 0.008
22:10 1023 30.21 852 25.16 11.4 52.5 92 10.2 50.4 0 0
22:15 1023 30.21 852 25.16 11.4 52.4 93 10.3 50.5 .2 0.008
22:20 1023 30.21 852 25.16 11.5 52.6 93 10.4 50.8 0 0
22:25 1023 30.21 852 25.16 11.6 52.8 93 10.5 50.8 .2 0.008
22:30 1023 30.21 852 25.16 11.6 52.8 93 10.5 50.9 .4 0.016
22:35 1023 30.21 852 25.16 11.6 52.8 93 10.5 50.9 0 0
22:40 1023 30.21 852 25.16 11.6 52.9 94 10.6 51.1 0 0
22:45 1023 30.21 852 25.16 11.6 52.9 94 10.7 51.3 .2 0.008
22:50 1023 30.21 852 25.16 11.5 52.8 95 10.7 51.3 0 0
22:55 1023 30.21 852 25.16 11.5 52.7 95 10.7 51.3 .2 0.008
23:00 1023 30.21 852 25.16 11.5 52.6 94 10.6 51 0 0
23:05 1023 30.21 852 25.16 11.4 52.5 94 10.5 50.9 0 0
23:10 1023 30.21 852 25.16 11.4 52.5 94 10.5 50.9 0 0
23:15 1023 30.21 852 25.16 11.3 52.4 94 10.4 50.8 0 0
23:20 1023 30.21 852 25.16 11.3 52.4 94 10.4 50.8 0 0
23:25 1023 30.21 852 25.16 11.3 52.3 94 10.4 50.8 0 0
23:30 1022 30.18 852 25.16 11.3 52.3 95 10.4 50.8 0 0
23:35 1022 30.18 852 25.16 11.4 52.4 94 10.4 50.6 0 0
23:40 1022 30.18 852 25.16 11.4 52.6 93 10.3 50.5 0 0
23:45 1022 30.18 852 25.16 11.5 52.6 92 10.3 50.5 0 0
23:50 1022 30.18 852 25.16 11.5 52.7 90 10 49.9 0 0
23:55 1022 30.18 851 25.13 11.5 52.7 90 9.9 49.9 0 0
24:00 1022 30.18 851 25.13 11.5 52.6 90 10 49.9 0 0